sensor_id;sensor_type;location;lat;lon;timestamp;P1;durP1;ratioP1;P2;durP2;ratioP2
26516;SDS011;14190;51.342;6.338;2022-12-10T00:01:29;52.95;;;27.85;;
26516;SDS011;14190;51.342;6.338;2022-12-10T00:03:57;54.23;;;27.85;;
26516;SDS011;14190;51.342;6.338;2022-12-10T00:06:31;50.75;;;27.58;;
26516;SDS011;14190;51.342;6.338;2022-12-10T00:08:54;57.08;;;29.00;;
26516;SDS011;14190;51.342;6.338;2022-12-10T00:11:22;59.35;;;30.32;;
26516;SDS011;14190;51.342;6.338;2022-12-10T00:13:49;59.75;;;28.35;;
26516;SDS011;14190;51.342;6.338;2022-12-10T00:16:18;59.05;;;31.62;;
26516;SDS011;14190;51.342;6.338;2022-12-10T00:18:46;63.15;;;30.08;;
26516;SDS011;14190;51.342;6.338;2022-12-10T00:21:17;62.03;;;30.82;;
26516;SDS011;14190;51.342;6.338;2022-12-10T00:23:45;53.23;;;28.62;;
26516;SDS011;14190;51.342;6.338;2022-12-10T00:26:14;54.77;;;28.65;;
26516;SDS011;14190;51.342;6.338;2022-12-10T00:28:43;57.90;;;29.10;;
26516;SDS011;14190;51.342;6.338;2022-12-10T00:31:12;58.45;;;27.37;;
26516;SDS011;14190;51.342;6.338;2022-12-10T00:33:40;62.78;;;29.15;;
26516;SDS011;14190;51.342;6.338;2022-12-10T00:36:11;62.25;;;30.88;;
26516;SDS011;14190;51.342;6.338;2022-12-10T00:38:37;62.25;;;29.40;;
26516;SDS011;14190;51.342;6.338;2022-12-10T00:41:04;57.80;;;28.40;;
26516;SDS011;14190;51.342;6.338;2022-12-10T00:43:33;49.38;;;26.50;;
26516;SDS011;14190;51.342;6.338;2022-12-10T00:46:01;64.42;;;28.73;;
26516;SDS011;14190;51.342;6.338;2022-12-10T00:48:29;62.27;;;29.80;;
26516;SDS011;14190;51.342;6.338;2022-12-10T00:51:01;55.75;;;28.52;;
26516;SDS011;14190;51.342;6.338;2022-12-10T00:53:29;68.30;;;32.25;;
26516;SDS011;14190;51.342;6.338;2022-12-10T00:55:57;63.15;;;32.08;;
26516;SDS011;14190;51.342;6.338;2022-12-10T00:58:28;58.48;;;30.00;;
26516;SDS011;14190;51.342;6.338;2022-12-10T01:01:06;68.02;;;31.93;;
26516;SDS011;14190;51.342;6.338;2022-12-10T01:03:24;58.95;;;30.00;;
26516;SDS011;14190;51.342;6.338;2022-12-10T01:05:52;68.17;;;32.05;;
26516;SDS011;14190;51.342;6.338;2022-12-10T01:08:19;57.78;;;29.35;;
26516;SDS011;14190;51.342;6.338;2022-12-10T01:10:52;60.10;;;28.38;;
26516;SDS011;14190;51.342;6.338;2022-12-10T01:13:15;68.30;;;29.95;;
26516;SDS011;14190;51.342;6.338;2022-12-10T01:15:44;60.28;;;30.02;;
26516;SDS011;14190;51.342;6.338;2022-12-10T01:18:11;64.12;;;28.70;;
26516;SDS011;14190;51.342;6.338;2022-12-10T01:20:39;57.58;;;28.65;;
26516;SDS011;14190;51.342;6.338;2022-12-10T01:23:07;58.60;;;29.27;;
26516;SDS011;14190;51.342;6.338;2022-12-10T01:25:35;58.83;;;29.20;;
26516;SDS011;14190;51.342;6.338;2022-12-10T01:28:02;61.25;;;28.00;;
26516;SDS011;14190;51.342;6.338;2022-12-10T01:30:30;65.75;;;29.02;;
26516;SDS011;14190;51.342;6.338;2022-12-10T01:32:57;56.02;;;29.67;;
26516;SDS011;14190;51.342;6.338;2022-12-10T01:35:24;57.00;;;27.15;;
26516;SDS011;14190;51.342;6.338;2022-12-10T01:37:52;69.37;;;29.77;;
26516;SDS011;14190;51.342;6.338;2022-12-10T01:40:19;60.73;;;28.80;;
26516;SDS011;14190;51.342;6.338;2022-12-10T01:42:46;66.15;;;29.65;;
26516;SDS011;14190;51.342;6.338;2022-12-10T01:45:14;64.00;;;29.35;;
26516;SDS011;14190;51.342;6.338;2022-12-10T01:47:41;65.45;;;30.77;;
26516;SDS011;14190;51.342;6.338;2022-12-10T01:50:08;63.63;;;30.43;;
26516;SDS011;14190;51.342;6.338;2022-12-10T01:52:36;71.82;;;31.93;;
26516;SDS011;14190;51.342;6.338;2022-12-10T01:57:33;70.92;;;31.27;;
26516;SDS011;14190;51.342;6.338;2022-12-10T02:00:03;72.95;;;31.30;;
26516;SDS011;14190;51.342;6.338;2022-12-10T02:02:41;69.25;;;31.15;;
26516;SDS011;14190;51.342;6.338;2022-12-10T02:07:52;75.05;;;32.58;;
26516;SDS011;14190;51.342;6.338;2022-12-10T02:12:47;73.90;;;33.50;;
26516;SDS011;14190;51.342;6.338;2022-12-10T02:15:30;80.92;;;35.58;;
26516;SDS011;14190;51.342;6.338;2022-12-10T02:18:13;75.47;;;33.28;;
26516;SDS011;14190;51.342;6.338;2022-12-10T02:20:41;76.25;;;33.75;;
26516;SDS011;14190;51.342;6.338;2022-12-10T02:23:10;83.45;;;34.00;;
26516;SDS011;14190;51.342;6.338;2022-12-10T02:25:46;72.42;;;34.10;;
26516;SDS011;14190;51.342;6.338;2022-12-10T02:28:17;79.15;;;34.55;;
26516;SDS011;14190;51.342;6.338;2022-12-10T02:30:42;76.37;;;33.80;;
26516;SDS011;14190;51.342;6.338;2022-12-10T02:33:11;82.33;;;33.92;;
26516;SDS011;14190;51.342;6.338;2022-12-10T02:35:40;90.07;;;34.03;;
26516;SDS011;14190;51.342;6.338;2022-12-10T02:38:19;80.60;;;35.48;;
26516;SDS011;14190;51.342;6.338;2022-12-10T02:40:48;90.20;;;39.85;;
26516;SDS011;14190;51.342;6.338;2022-12-10T02:43:16;90.17;;;38.33;;
26516;SDS011;14190;51.342;6.338;2022-12-10T02:45:45;81.32;;;34.58;;
26516;SDS011;14190;51.342;6.338;2022-12-10T02:48:13;75.65;;;35.17;;
26516;SDS011;14190;51.342;6.338;2022-12-10T02:50:42;81.65;;;35.48;;
26516;SDS011;14190;51.342;6.338;2022-12-10T02:53:09;79.53;;;36.73;;
26516;SDS011;14190;51.342;6.338;2022-12-10T03:01:12;97.20;;;40.33;;
26516;SDS011;14190;51.342;6.338;2022-12-10T03:03:50;97.53;;;39.80;;
26516;SDS011;14190;51.342;6.338;2022-12-10T03:09:01;103.25;;;41.60;;
26516;SDS011;14190;51.342;6.338;2022-12-10T03:11:28;109.97;;;41.90;;
26516;SDS011;14190;51.342;6.338;2022-12-10T03:14:13;104.17;;;40.38;;
26516;SDS011;14190;51.342;6.338;2022-12-10T03:16:46;99.07;;;39.85;;
26516;SDS011;14190;51.342;6.338;2022-12-10T03:19:15;101.18;;;42.10;;
26516;SDS011;14190;51.342;6.338;2022-12-10T03:21:39;105.45;;;42.33;;
26516;SDS011;14190;51.342;6.338;2022-12-10T03:24:10;102.12;;;42.85;;
26516;SDS011;14190;51.342;6.338;2022-12-10T03:26:38;106.37;;;43.08;;
26516;SDS011;14190;51.342;6.338;2022-12-10T03:29:07;105.35;;;43.70;;
26516;SDS011;14190;51.342;6.338;2022-12-10T03:31:35;106.90;;;42.62;;
26516;SDS011;14190;51.342;6.338;2022-12-10T03:34:03;108.27;;;42.10;;
26516;SDS011;14190;51.342;6.338;2022-12-10T03:36:31;99.75;;;41.42;;
26516;SDS011;14190;51.342;6.338;2022-12-10T03:38:59;112.72;;;44.38;;
26516;SDS011;14190;51.342;6.338;2022-12-10T03:41:27;114.05;;;43.78;;
26516;SDS011;14190;51.342;6.338;2022-12-10T03:43:56;110.45;;;43.52;;
26516;SDS011;14190;51.342;6.338;2022-12-10T03:46:24;102.45;;;42.53;;
26516;SDS011;14190;51.342;6.338;2022-12-10T03:48:52;101.78;;;40.92;;
26516;SDS011;14190;51.342;6.338;2022-12-10T03:51:19;106.15;;;42.58;;
26516;SDS011;14190;51.342;6.338;2022-12-10T03:53:47;103.00;;;41.73;;
26516;SDS011;14190;51.342;6.338;2022-12-10T03:56:18;109.03;;;43.23;;
26516;SDS011;14190;51.342;6.338;2022-12-10T03:58:45;98.97;;;40.73;;
26516;SDS011;14190;51.342;6.338;2022-12-10T04:01:13;91.47;;;39.85;;
26516;SDS011;14190;51.342;6.338;2022-12-10T04:03:41;101.97;;;41.45;;
26516;SDS011;14190;51.342;6.338;2022-12-10T04:06:11;104.87;;;41.40;;
26516;SDS011;14190;51.342;6.338;2022-12-10T04:08:38;105.85;;;41.33;;
26516;SDS011;14190;51.342;6.338;2022-12-10T04:11:06;96.12;;;39.85;;
26516;SDS011;14190;51.342;6.338;2022-12-10T04:13:35;109.83;;;43.40;;
26516;SDS011;14190;51.342;6.338;2022-12-10T04:16:21;102.22;;;41.23;;
26516;SDS011;14190;51.342;6.338;2022-12-10T04:18:55;101.05;;;42.62;;
26516;SDS011;14190;51.342;6.338;2022-12-10T04:21:23;100.50;;;41.53;;
26516;SDS011;14190;51.342;6.338;2022-12-10T04:24:09;101.90;;;42.75;;
26516;SDS011;14190;51.342;6.338;2022-12-10T04:26:55;110.63;;;44.25;;
26516;SDS011;14190;51.342;6.338;2022-12-10T04:29:24;100.62;;;42.73;;
26516;SDS011;14190;51.342;6.338;2022-12-10T04:31:52;108.15;;;43.50;;
26516;SDS011;14190;51.342;6.338;2022-12-10T04:34:20;109.20;;;44.33;;
26516;SDS011;14190;51.342;6.338;2022-12-10T04:36:47;110.20;;;44.10;;
26516;SDS011;14190;51.342;6.338;2022-12-10T04:39:15;116.47;;;43.85;;
26516;SDS011;14190;51.342;6.338;2022-12-10T04:41:43;101.15;;;43.35;;
26516;SDS011;14190;51.342;6.338;2022-12-10T04:44:11;107.22;;;44.77;;
26516;SDS011;14190;51.342;6.338;2022-12-10T04:46:38;109.87;;;44.40;;
26516;SDS011;14190;51.342;6.338;2022-12-10T04:49:06;102.45;;;43.30;;
26516;SDS011;14190;51.342;6.338;2022-12-10T04:51:33;110.28;;;42.75;;
26516;SDS011;14190;51.342;6.338;2022-12-10T04:54:01;116.17;;;45.15;;
26516;SDS011;14190;51.342;6.338;2022-12-10T04:56:29;98.03;;;42.20;;
26516;SDS011;14190;51.342;6.338;2022-12-10T04:58:56;109.70;;;44.98;;
26516;SDS011;14190;51.342;6.338;2022-12-10T05:01:24;112.97;;;45.28;;
26516;SDS011;14190;51.342;6.338;2022-12-10T05:03:52;125.40;;;47.33;;
26516;SDS011;14190;51.342;6.338;2022-12-10T05:06:19;131.90;;;47.78;;
26516;SDS011;14190;51.342;6.338;2022-12-10T05:08:47;127.53;;;46.02;;
26516;SDS011;14190;51.342;6.338;2022-12-10T05:11:19;122.67;;;46.00;;
26516;SDS011;14190;51.342;6.338;2022-12-10T05:13:46;128.38;;;47.95;;
26516;SDS011;14190;51.342;6.338;2022-12-10T05:16:15;124.20;;;49.75;;
26516;SDS011;14190;51.342;6.338;2022-12-10T05:18:43;120.85;;;47.35;;
26516;SDS011;14190;51.342;6.338;2022-12-10T05:21:11;149.42;;;51.80;;
26516;SDS011;14190;51.342;6.338;2022-12-10T05:23:41;136.97;;;50.93;;
26516;SDS011;14190;51.342;6.338;2022-12-10T05:26:09;145.70;;;54.08;;
26516;SDS011;14190;51.342;6.338;2022-12-10T05:28:38;143.37;;;53.10;;
26516;SDS011;14190;51.342;6.338;2022-12-10T05:31:10;132.85;;;50.15;;
26516;SDS011;14190;51.342;6.338;2022-12-10T05:33:34;135.00;;;48.83;;
26516;SDS011;14190;51.342;6.338;2022-12-10T05:36:02;139.57;;;51.58;;
26516;SDS011;14190;51.342;6.338;2022-12-10T05:38:30;134.32;;;53.35;;
26516;SDS011;14190;51.342;6.338;2022-12-10T05:41:05;136.20;;;52.53;;
26516;SDS011;14190;51.342;6.338;2022-12-10T05:43:32;143.10;;;51.28;;
26516;SDS011;14190;51.342;6.338;2022-12-10T05:46:00;153.78;;;52.53;;
26516;SDS011;14190;51.342;6.338;2022-12-10T05:48:28;136.28;;;51.58;;
26516;SDS011;14190;51.342;6.338;2022-12-10T05:50:56;146.72;;;55.33;;
26516;SDS011;14190;51.342;6.338;2022-12-10T05:53:24;143.50;;;52.23;;
26516;SDS011;14190;51.342;6.338;2022-12-10T05:55:58;141.88;;;50.30;;
26516;SDS011;14190;51.342;6.338;2022-12-10T05:58:20;144.43;;;51.92;;
26516;SDS011;14190;51.342;6.338;2022-12-10T06:00:47;146.18;;;54.73;;
26516;SDS011;14190;51.342;6.338;2022-12-10T06:03:15;134.20;;;50.75;;
26516;SDS011;14190;51.342;6.338;2022-12-10T06:05:42;139.37;;;52.53;;
26516;SDS011;14190;51.342;6.338;2022-12-10T06:08:09;160.75;;;55.40;;
26516;SDS011;14190;51.342;6.338;2022-12-10T06:10:37;151.82;;;53.08;;
26516;SDS011;14190;51.342;6.338;2022-12-10T06:13:04;158.03;;;55.80;;
26516;SDS011;14190;51.342;6.338;2022-12-10T06:15:32;156.05;;;53.78;;
26516;SDS011;14190;51.342;6.338;2022-12-10T06:17:59;158.70;;;55.78;;
26516;SDS011;14190;51.342;6.338;2022-12-10T06:20:26;165.25;;;55.20;;
26516;SDS011;14190;51.342;6.338;2022-12-10T06:22:54;166.35;;;53.30;;
26516;SDS011;14190;51.342;6.338;2022-12-10T06:25:21;153.57;;;53.55;;
26516;SDS011;14190;51.342;6.338;2022-12-10T06:27:48;164.28;;;53.58;;
26516;SDS011;14190;51.342;6.338;2022-12-10T06:30:16;161.88;;;55.80;;
26516;SDS011;14190;51.342;6.338;2022-12-10T06:32:43;173.25;;;54.67;;
26516;SDS011;14190;51.342;6.338;2022-12-10T06:35:11;171.93;;;55.85;;
26516;SDS011;14190;51.342;6.338;2022-12-10T06:37:38;162.92;;;56.35;;
26516;SDS011;14190;51.342;6.338;2022-12-10T06:40:06;175.38;;;58.65;;
26516;SDS011;14190;51.342;6.338;2022-12-10T06:42:33;160.93;;;55.03;;
26516;SDS011;14190;51.342;6.338;2022-12-10T06:45:00;177.55;;;55.58;;
26516;SDS011;14190;51.342;6.338;2022-12-10T06:47:28;172.05;;;56.15;;
26516;SDS011;14190;51.342;6.338;2022-12-10T06:49:55;155.75;;;54.70;;
26516;SDS011;14190;51.342;6.338;2022-12-10T06:52:23;174.12;;;56.80;;
26516;SDS011;14190;51.342;6.338;2022-12-10T06:54:50;177.50;;;57.33;;
26516;SDS011;14190;51.342;6.338;2022-12-10T06:57:17;179.40;;;56.28;;
26516;SDS011;14190;51.342;6.338;2022-12-10T06:59:45;186.28;;;60.95;;
26516;SDS011;14190;51.342;6.338;2022-12-10T07:02:12;180.72;;;59.33;;
26516;SDS011;14190;51.342;6.338;2022-12-10T07:04:39;175.95;;;57.08;;
26516;SDS011;14190;51.342;6.338;2022-12-10T07:07:07;181.55;;;60.67;;
26516;SDS011;14190;51.342;6.338;2022-12-10T07:09:34;179.78;;;55.23;;
26516;SDS011;14190;51.342;6.338;2022-12-10T07:12:03;171.62;;;55.95;;
26516;SDS011;14190;51.342;6.338;2022-12-10T07:14:30;172.32;;;56.05;;
26516;SDS011;14190;51.342;6.338;2022-12-10T07:16:58;169.20;;;57.90;;
26516;SDS011;14190;51.342;6.338;2022-12-10T07:19:25;162.65;;;58.45;;
26516;SDS011;14190;51.342;6.338;2022-12-10T07:21:53;172.07;;;57.33;;
26516;SDS011;14190;51.342;6.338;2022-12-10T07:24:20;178.10;;;59.25;;
26516;SDS011;14190;51.342;6.338;2022-12-10T07:26:47;171.15;;;60.28;;
26516;SDS011;14190;51.342;6.338;2022-12-10T07:29:17;169.30;;;63.28;;
26516;SDS011;14190;51.342;6.338;2022-12-10T07:31:44;178.30;;;60.90;;
26516;SDS011;14190;51.342;6.338;2022-12-10T07:34:12;171.50;;;61.33;;
26516;SDS011;14190;51.342;6.338;2022-12-10T07:36:39;176.42;;;58.68;;
26516;SDS011;14190;51.342;6.338;2022-12-10T07:39:07;162.30;;;59.63;;
26516;SDS011;14190;51.342;6.338;2022-12-10T07:41:35;165.90;;;55.83;;
26516;SDS011;14190;51.342;6.338;2022-12-10T07:44:04;167.80;;;58.98;;
26516;SDS011;14190;51.342;6.338;2022-12-10T07:46:33;155.55;;;57.10;;
26516;SDS011;14190;51.342;6.338;2022-12-10T07:49:01;161.97;;;55.70;;
26516;SDS011;14190;51.342;6.338;2022-12-10T07:51:29;173.05;;;57.05;;
26516;SDS011;14190;51.342;6.338;2022-12-10T07:53:56;156.67;;;54.75;;
26516;SDS011;14190;51.342;6.338;2022-12-10T07:56:24;162.27;;;57.58;;
26516;SDS011;14190;51.342;6.338;2022-12-10T07:58:52;165.62;;;56.08;;
26516;SDS011;14190;51.342;6.338;2022-12-10T08:01:21;167.35;;;57.58;;
26516;SDS011;14190;51.342;6.338;2022-12-10T08:03:50;160.22;;;53.48;;
26516;SDS011;14190;51.342;6.338;2022-12-10T08:06:19;164.35;;;54.70;;
26516;SDS011;14190;51.342;6.338;2022-12-10T08:08:47;163.57;;;56.45;;
26516;SDS011;14190;51.342;6.338;2022-12-10T08:11:15;157.12;;;52.78;;
26516;SDS011;14190;51.342;6.338;2022-12-10T08:13:43;158.00;;;53.85;;
26516;SDS011;14190;51.342;6.338;2022-12-10T08:16:11;161.60;;;54.90;;
26516;SDS011;14190;51.342;6.338;2022-12-10T08:18:39;154.60;;;55.43;;
26516;SDS011;14190;51.342;6.338;2022-12-10T08:21:08;169.97;;;55.70;;
26516;SDS011;14190;51.342;6.338;2022-12-10T08:23:36;160.43;;;55.90;;
26516;SDS011;14190;51.342;6.338;2022-12-10T08:26:07;152.40;;;53.42;;
26516;SDS011;14190;51.342;6.338;2022-12-10T08:28:35;165.92;;;53.48;;
26516;SDS011;14190;51.342;6.338;2022-12-10T08:31:02;164.97;;;57.17;;
26516;SDS011;14190;51.342;6.338;2022-12-10T08:33:29;150.30;;;52.85;;
26516;SDS011;14190;51.342;6.338;2022-12-10T08:35:58;155.93;;;52.17;;
26516;SDS011;14190;51.342;6.338;2022-12-10T08:38:28;160.57;;;56.37;;
26516;SDS011;14190;51.342;6.338;2022-12-10T08:40:56;153.75;;;52.78;;
26516;SDS011;14190;51.342;6.338;2022-12-10T08:43:23;147.43;;;52.38;;
26516;SDS011;14190;51.342;6.338;2022-12-10T08:45:51;156.02;;;52.53;;
26516;SDS011;14190;51.342;6.338;2022-12-10T08:48:18;153.40;;;53.33;;
26516;SDS011;14190;51.342;6.338;2022-12-10T08:50:46;142.53;;;49.13;;
26516;SDS011;14190;51.342;6.338;2022-12-10T08:53:13;146.20;;;52.30;;
26516;SDS011;14190;51.342;6.338;2022-12-10T08:55:40;135.15;;;49.88;;
26516;SDS011;14190;51.342;6.338;2022-12-10T08:58:08;124.78;;;48.48;;
26516;SDS011;14190;51.342;6.338;2022-12-10T09:00:36;148.53;;;51.10;;
26516;SDS011;14190;51.342;6.338;2022-12-10T09:03:04;152.32;;;52.67;;
26516;SDS011;14190;51.342;6.338;2022-12-10T09:05:31;131.87;;;47.62;;
26516;SDS011;14190;51.342;6.338;2022-12-10T09:08:00;131.55;;;46.50;;
26516;SDS011;14190;51.342;6.338;2022-12-10T09:10:27;123.92;;;45.80;;
26516;SDS011;14190;51.342;6.338;2022-12-10T09:12:55;141.00;;;48.52;;
26516;SDS011;14190;51.342;6.338;2022-12-10T09:15:22;127.85;;;47.48;;
26516;SDS011;14190;51.342;6.338;2022-12-10T09:17:50;134.43;;;46.58;;
26516;SDS011;14190;51.342;6.338;2022-12-10T09:20:17;128.87;;;47.95;;
26516;SDS011;14190;51.342;6.338;2022-12-10T09:22:44;132.07;;;46.98;;
26516;SDS011;14190;51.342;6.338;2022-12-10T09:25:12;129.85;;;45.05;;
26516;SDS011;14190;51.342;6.338;2022-12-10T09:27:41;138.35;;;48.05;;
26516;SDS011;14190;51.342;6.338;2022-12-10T09:30:09;123.50;;;45.28;;
26516;SDS011;14190;51.342;6.338;2022-12-10T09:32:37;126.97;;;46.77;;
26516;SDS011;14190;51.342;6.338;2022-12-10T09:35:04;130.47;;;47.20;;
26516;SDS011;14190;51.342;6.338;2022-12-10T09:37:32;125.38;;;45.70;;
26516;SDS011;14190;51.342;6.338;2022-12-10T09:40:00;129.42;;;47.65;;
26516;SDS011;14190;51.342;6.338;2022-12-10T09:47:54;133.72;;;47.95;;
26516;SDS011;14190;51.342;6.338;2022-12-10T09:50:26;147.60;;;50.78;;
26516;SDS011;14190;51.342;6.338;2022-12-10T09:52:52;137.85;;;48.17;;
26516;SDS011;14190;51.342;6.338;2022-12-10T09:55:28;145.55;;;50.10;;
26516;SDS011;14190;51.342;6.338;2022-12-10T09:57:51;140.18;;;50.28;;
26516;SDS011;14190;51.342;6.338;2022-12-10T10:00:21;157.00;;;50.40;;
26516;SDS011;14190;51.342;6.338;2022-12-10T10:02:49;155.05;;;51.85;;
26516;SDS011;14190;51.342;6.338;2022-12-10T10:05:36;135.35;;;51.00;;
26516;SDS011;14190;51.342;6.338;2022-12-10T10:07:51;143.72;;;50.98;;
26516;SDS011;14190;51.342;6.338;2022-12-10T10:10:20;152.55;;;49.83;;
26516;SDS011;14190;51.342;6.338;2022-12-10T10:12:47;152.68;;;52.23;;
26516;SDS011;14190;51.342;6.338;2022-12-10T10:15:16;146.53;;;49.73;;
26516;SDS011;14190;51.342;6.338;2022-12-10T10:17:43;148.85;;;49.10;;
26516;SDS011;14190;51.342;6.338;2022-12-10T10:20:13;153.82;;;54.73;;
26516;SDS011;14190;51.342;6.338;2022-12-10T10:22:41;182.43;;;64.37;;
26516;SDS011;14190;51.342;6.338;2022-12-10T10:25:15;157.90;;;53.73;;
26516;SDS011;14190;51.342;6.338;2022-12-10T10:27:43;146.95;;;55.52;;
26516;SDS011;14190;51.342;6.338;2022-12-10T10:30:15;142.98;;;52.83;;
26516;SDS011;14190;51.342;6.338;2022-12-10T10:35:24;147.37;;;48.45;;
26516;SDS011;14190;51.342;6.338;2022-12-10T10:37:52;151.25;;;49.15;;
26516;SDS011;14190;51.342;6.338;2022-12-10T10:40:21;148.78;;;52.38;;
26516;SDS011;14190;51.342;6.338;2022-12-10T10:42:51;141.43;;;48.40;;
26516;SDS011;14190;51.342;6.338;2022-12-10T10:48:06;148.00;;;51.70;;
26516;SDS011;14190;51.342;6.338;2022-12-10T10:50:37;125.62;;;47.10;;
26516;SDS011;14190;51.342;6.338;2022-12-10T10:53:01;141.75;;;47.70;;
26516;SDS011;14190;51.342;6.338;2022-12-10T10:55:32;137.72;;;49.70;;
26516;SDS011;14190;51.342;6.338;2022-12-10T10:58:03;148.20;;;51.90;;
26516;SDS011;14190;51.342;6.338;2022-12-10T11:00:30;153.47;;;51.15;;
26516;SDS011;14190;51.342;6.338;2022-12-10T11:02:58;156.67;;;53.28;;
26516;SDS011;14190;51.342;6.338;2022-12-10T11:05:26;160.45;;;53.28;;
26516;SDS011;14190;51.342;6.338;2022-12-10T11:08:01;155.57;;;57.38;;
26516;SDS011;14190;51.342;6.338;2022-12-10T11:10:29;162.88;;;57.93;;
26516;SDS011;14190;51.342;6.338;2022-12-10T11:12:57;151.42;;;54.30;;
26516;SDS011;14190;51.342;6.338;2022-12-10T11:15:45;146.32;;;55.60;;
26516;SDS011;14190;51.342;6.338;2022-12-10T11:17:59;157.70;;;55.05;;
26516;SDS011;14190;51.342;6.338;2022-12-10T11:20:28;158.82;;;58.48;;
26516;SDS011;14190;51.342;6.338;2022-12-10T11:22:57;156.47;;;52.48;;
26516;SDS011;14190;51.342;6.338;2022-12-10T11:28:10;150.25;;;51.95;;
26516;SDS011;14190;51.342;6.338;2022-12-10T11:30:32;162.20;;;55.00;;
26516;SDS011;14190;51.342;6.338;2022-12-10T11:33:21;163.60;;;55.45;;
26516;SDS011;14190;51.342;6.338;2022-12-10T11:35:56;151.12;;;52.70;;
26516;SDS011;14190;51.342;6.338;2022-12-10T11:38:27;159.32;;;55.65;;
26516;SDS011;14190;51.342;6.338;2022-12-10T11:40:58;153.35;;;55.08;;
26516;SDS011;14190;51.342;6.338;2022-12-10T11:48:58;152.57;;;53.78;;
26516;SDS011;14190;51.342;6.338;2022-12-10T11:56:48;154.60;;;54.95;;
26516;SDS011;14190;51.342;6.338;2022-12-10T11:59:11;142.93;;;55.95;;
26516;SDS011;14190;51.342;6.338;2022-12-10T12:14:31;144.37;;;54.55;;
26516;SDS011;14190;51.342;6.338;2022-12-10T12:17:00;151.50;;;58.23;;
26516;SDS011;14190;51.342;6.338;2022-12-10T12:21:59;147.43;;;53.80;;
26516;SDS011;14190;51.342;6.338;2022-12-10T12:24:35;150.07;;;56.63;;
26516;SDS011;14190;51.342;6.338;2022-12-10T12:27:26;155.12;;;59.67;;
26516;SDS011;14190;51.342;6.338;2022-12-10T12:29:33;154.45;;;60.20;;
26516;SDS011;14190;51.342;6.338;2022-12-10T12:32:08;156.57;;;58.35;;
26516;SDS011;14190;51.342;6.338;2022-12-10T12:37:08;145.38;;;56.48;;
26516;SDS011;14190;51.342;6.338;2022-12-10T12:39:39;143.02;;;55.80;;
26516;SDS011;14190;51.342;6.338;2022-12-10T12:42:14;164.05;;;61.25;;
26516;SDS011;14190;51.342;6.338;2022-12-10T12:44:49;158.40;;;60.15;;
26516;SDS011;14190;51.342;6.338;2022-12-10T12:47:22;179.78;;;68.60;;
26516;SDS011;14190;51.342;6.338;2022-12-10T12:49:48;169.40;;;66.33;;
26516;SDS011;14190;51.342;6.338;2022-12-10T12:52:34;213.75;;;80.65;;
26516;SDS011;14190;51.342;6.338;2022-12-10T12:55:02;188.22;;;71.85;;
26516;SDS011;14190;51.342;6.338;2022-12-10T13:00:00;162.55;;;66.60;;
26516;SDS011;14190;51.342;6.338;2022-12-10T13:05:15;170.43;;;68.62;;
26516;SDS011;14190;51.342;6.338;2022-12-10T13:07:43;173.13;;;68.97;;
26516;SDS011;14190;51.342;6.338;2022-12-10T13:12:45;178.68;;;66.95;;
26516;SDS011;14190;51.342;6.338;2022-12-10T13:15:18;177.10;;;68.80;;
26516;SDS011;14190;51.342;6.338;2022-12-10T13:20:39;173.10;;;72.15;;
26516;SDS011;14190;51.342;6.338;2022-12-10T13:23:01;189.60;;;76.90;;
26516;SDS011;14190;51.342;6.338;2022-12-10T13:25:42;163.00;;;65.90;;
26516;SDS011;14190;51.342;6.338;2022-12-10T13:28:20;187.15;;;78.52;;
26516;SDS011;14190;51.342;6.338;2022-12-10T13:30:45;166.75;;;70.90;;
26516;SDS011;14190;51.342;6.338;2022-12-10T13:33:15;184.18;;;74.55;;
26516;SDS011;14190;51.342;6.338;2022-12-10T13:35:49;189.13;;;73.57;;
26516;SDS011;14190;51.342;6.338;2022-12-10T13:38:20;162.47;;;71.00;;
26516;SDS011;14190;51.342;6.338;2022-12-10T13:40:56;166.40;;;69.30;;
26516;SDS011;14190;51.342;6.338;2022-12-10T13:46:27;170.20;;;68.05;;
26516;SDS011;14190;51.342;6.338;2022-12-10T13:48:54;159.63;;;64.95;;
26516;SDS011;14190;51.342;6.338;2022-12-10T13:51:24;159.18;;;66.42;;
26516;SDS011;14190;51.342;6.338;2022-12-10T13:53:56;157.95;;;63.48;;
26516;SDS011;14190;51.342;6.338;2022-12-10T13:56:35;155.72;;;63.23;;
26516;SDS011;14190;51.342;6.338;2022-12-10T13:59:16;147.10;;;57.17;;
26516;SDS011;14190;51.342;6.338;2022-12-10T14:04:16;149.35;;;57.83;;
26516;SDS011;14190;51.342;6.338;2022-12-10T14:06:42;139.80;;;55.95;;
26516;SDS011;14190;51.342;6.338;2022-12-10T14:09:16;140.73;;;55.90;;
26516;SDS011;14190;51.342;6.338;2022-12-10T14:11:59;140.18;;;55.58;;
26516;SDS011;14190;51.342;6.338;2022-12-10T14:14:33;135.55;;;54.30;;
26516;SDS011;14190;51.342;6.338;2022-12-10T14:16:59;143.10;;;56.08;;
26516;SDS011;14190;51.342;6.338;2022-12-10T14:19:26;141.70;;;55.12;;
26516;SDS011;14190;51.342;6.338;2022-12-10T14:21:54;136.22;;;51.30;;
26516;SDS011;14190;51.342;6.338;2022-12-10T14:24:35;126.42;;;49.50;;
26516;SDS011;14190;51.342;6.338;2022-12-10T14:27:13;126.40;;;49.10;;
26516;SDS011;14190;51.342;6.338;2022-12-10T14:29:48;139.43;;;51.53;;
26516;SDS011;14190;51.342;6.338;2022-12-10T14:32:23;142.43;;;52.35;;
26516;SDS011;14190;51.342;6.338;2022-12-10T14:34:57;142.30;;;51.25;;
26516;SDS011;14190;51.342;6.338;2022-12-10T14:37:20;137.70;;;52.83;;
26516;SDS011;14190;51.342;6.338;2022-12-10T14:39:49;142.90;;;52.20;;
26516;SDS011;14190;51.342;6.338;2022-12-10T14:42:19;143.60;;;56.33;;
26516;SDS011;14190;51.342;6.338;2022-12-10T14:44:46;142.65;;;53.80;;
26516;SDS011;14190;51.342;6.338;2022-12-10T14:47:18;137.72;;;52.83;;
26516;SDS011;14190;51.342;6.338;2022-12-10T14:49:47;137.05;;;50.95;;
26516;SDS011;14190;51.342;6.338;2022-12-10T14:52:16;144.05;;;54.03;;
26516;SDS011;14190;51.342;6.338;2022-12-10T14:54:44;136.75;;;51.08;;
26516;SDS011;14190;51.342;6.338;2022-12-10T14:57:14;137.00;;;52.17;;
26516;SDS011;14190;51.342;6.338;2022-12-10T14:59:49;134.37;;;50.55;;
26516;SDS011;14190;51.342;6.338;2022-12-10T15:02:24;135.28;;;50.10;;
26516;SDS011;14190;51.342;6.338;2022-12-10T15:04:55;141.45;;;52.62;;
26516;SDS011;14190;51.342;6.338;2022-12-10T15:07:24;131.63;;;49.98;;
26516;SDS011;14190;51.342;6.338;2022-12-10T15:09:53;152.45;;;53.68;;
26516;SDS011;14190;51.342;6.338;2022-12-10T15:12:29;147.43;;;52.78;;
26516;SDS011;14190;51.342;6.338;2022-12-10T15:14:57;141.88;;;53.40;;
26516;SDS011;14190;51.342;6.338;2022-12-10T15:17:32;152.87;;;53.90;;
26516;SDS011;14190;51.342;6.338;2022-12-10T15:20:00;158.60;;;58.02;;
26516;SDS011;14190;51.342;6.338;2022-12-10T15:22:27;157.12;;;60.40;;
26516;SDS011;14190;51.342;6.338;2022-12-10T15:24:55;148.35;;;56.73;;
26516;SDS011;14190;51.342;6.338;2022-12-10T15:27:23;152.05;;;56.85;;
26516;SDS011;14190;51.342;6.338;2022-12-10T15:29:51;137.65;;;51.40;;
26516;SDS011;14190;51.342;6.338;2022-12-10T15:32:20;151.85;;;52.85;;
26516;SDS011;14190;51.342;6.338;2022-12-10T15:34:53;142.60;;;53.48;;
26516;SDS011;14190;51.342;6.338;2022-12-10T15:37:19;146.02;;;53.52;;